createdAt,value
2022-12-15T00:02:59.727Z,90.82
2022-12-15T00:08:40.314Z,90.69
2022-12-15T00:14:20.739Z,89.65
2022-12-15T00:20:01.136Z,90.58
2022-12-15T00:25:41.801Z,90.16
2022-12-15T00:31:22.070Z,90.18
2022-12-15T00:37:02.239Z,92.08
2022-12-15T00:42:24.041Z,91.44
2022-12-15T00:47:45.788Z,91.57
2022-12-15T00:53:26.807Z,91.31
2022-12-15T00:59:07.004Z,91.71
2022-12-15T01:04:47.895Z,92.21
2022-12-15T01:10:28.628Z,91.96
2022-12-15T01:16:08.939Z,90.98
2022-12-15T01:21:31.763Z,91.39
2022-12-15T01:26:53.476Z,91.63
2022-12-15T01:32:15.243Z,91.35
2022-12-15T01:37:37.217Z,91.41
2022-12-15T01:42:59.084Z,90.32
2022-12-15T01:48:35.870Z,90.77
2022-12-15T01:54:03.482Z,90.19
2022-12-15T01:59:32.930Z,89.72
2022-12-15T02:04:56.895Z,88.92
2022-12-15T02:10:18.817Z,89.02
2022-12-15T02:15:56.023Z,88.66
2022-12-15T02:21:30.903Z,89.32
2022-12-15T02:27:13.541Z,89.49
2022-12-15T02:32:45.440Z,88.47
2022-12-15T02:38:09.392Z,89.43
2022-12-15T02:43:36.278Z,88.50
2022-12-15T02:49:24.355Z,89.11
2022-12-15T02:55:09.098Z,90.37
2022-12-15T03:00:36.669Z,89.39
2022-12-15T03:06:02.136Z,89.28
2022-12-15T03:11:24.066Z,89.38
2022-12-15T03:16:46.010Z,89.09
2022-12-15T03:22:08.007Z,88.88
2022-12-15T03:27:30.163Z,88.05
2022-12-15T03:32:51.883Z,88.20
2022-12-15T03:38:13.738Z,88.10
2022-12-15T03:43:35.473Z,88.06
2022-12-15T03:48:57.390Z,87.74
2022-12-15T03:54:22.538Z,88.08
2022-12-15T03:59:44.279Z,88.56
2022-12-15T04:05:06.560Z,89.05
2022-12-15T04:10:34.225Z,87.42
2022-12-15T04:15:56.697Z,87.71
2022-12-15T04:21:18.411Z,87.79
2022-12-15T04:26:58.737Z,87.24
2022-12-15T04:32:39.131Z,88.22
2022-12-15T04:38:19.747Z,88.26
2022-12-15T04:44:00.385Z,89.64
2022-12-15T04:49:40.567Z,89.01
2022-12-15T04:55:20.666Z,89.35
2022-12-15T05:01:01.028Z,89.92
2022-12-15T05:06:41.715Z,89.92
2022-12-15T05:12:22.378Z,90.33
2022-12-15T05:18:02.529Z,89.90
2022-12-15T05:23:42.876Z,88.68
2022-12-15T05:29:23.518Z,89.91
2022-12-15T05:34:45.257Z,89.24
2022-12-15T05:40:07.839Z,88.72
2022-12-15T05:45:29.635Z,89.02
2022-12-15T05:50:51.639Z,88.50
2022-12-15T05:56:15.130Z,88.64
2022-12-15T06:01:37.036Z,88.52
2022-12-15T06:06:58.838Z,88.59
2022-12-15T06:12:20.582Z,90.08
2022-12-15T06:17:42.303Z,89.59
2022-12-15T06:23:04.013Z,89.76
2022-12-15T06:28:26.174Z,89.68
2022-12-15T06:33:49.250Z,90.35
2022-12-15T06:39:13.673Z,89.64
2022-12-15T06:44:35.401Z,90.08
2022-12-15T06:49:57.198Z,90.08
2022-12-15T06:55:19.098Z,89.89
2022-12-15T07:00:43.103Z,88.02
2022-12-15T07:06:07.372Z,89.44
2022-12-15T07:11:29.725Z,89.63
2022-12-15T07:16:51.476Z,88.68
2022-12-15T07:22:13.298Z,88.40
2022-12-15T07:27:36.164Z,90.09
2022-12-15T07:32:58.298Z,89.11
2022-12-15T07:38:20.025Z,89.57
2022-12-15T07:43:41.834Z,88.86
2022-12-15T07:49:03.590Z,89.31
2022-12-15T07:54:25.787Z,88.98
2022-12-15T07:59:47.544Z,89.47
2022-12-15T08:05:10.181Z,88.95
2022-12-15T08:10:32.505Z,89.91
2022-12-15T08:15:57.230Z,89.53
2022-12-15T08:21:19.360Z,89.26
2022-12-15T08:26:42.434Z,89.26
2022-12-15T08:32:05.508Z,88.86
2022-12-15T08:37:27.283Z,87.82
2022-12-15T08:42:49.104Z,88.31
2022-12-15T08:48:10.842Z,89.28
2022-12-15T08:53:32.709Z,89.97
2022-12-15T08:58:57.591Z,88.48
2022-12-15T09:04:19.426Z,88.15
2022-12-15T09:09:41.216Z,88.58
2022-12-15T09:15:03.247Z,87.65
2022-12-15T09:20:25.054Z,88.35
2022-12-15T09:25:47.138Z,87.72
2022-12-15T09:31:14.514Z,87.35
2022-12-15T09:36:36.302Z,85.38
2022-12-15T09:42:01.516Z,85.79
2022-12-15T09:48:02.815Z,83.97
2022-12-15T09:53:53.716Z,83.66
2022-12-15T09:59:32.742Z,84.71
2022-12-15T10:05:22.434Z,85.53
2022-12-15T10:10:57.550Z,84.19
2022-12-15T10:16:38.163Z,84.03
2022-12-15T10:22:00.214Z,83.76
2022-12-15T10:27:36.936Z,83.64
2022-12-15T10:33:19.206Z,84.46
2022-12-15T10:38:47.439Z,83.94
2022-12-15T10:44:39.033Z,85.23
2022-12-15T10:50:24.228Z,85.70
2022-12-15T10:55:49.913Z,85.24
2022-12-15T11:01:18.152Z,84.58
2022-12-15T11:06:42.578Z,85.25
2022-12-15T11:12:46.039Z,86.03
2022-12-15T11:18:27.581Z,85.41
2022-12-15T11:23:59.319Z,86.03
2022-12-15T11:29:23.760Z,85.18
2022-12-15T11:34:47.196Z,85.80
2022-12-15T11:40:40.930Z,83.71
2022-12-15T11:46:14.971Z,83.52
2022-12-15T11:51:44.644Z,84.88
2022-12-15T11:57:25.732Z,84.29
2022-12-15T12:03:38.213Z,84.30
2022-12-15T12:09:18.505Z,84.99
2022-12-15T12:14:58.704Z,84.19
2022-12-15T12:21:04.699Z,83.84
2022-12-15T12:26:35.873Z,83.62
2022-12-15T12:32:07.473Z,85.54
2022-12-15T12:38:01.040Z,83.46
2022-12-15T12:43:43.130Z,83.49
2022-12-15T12:49:26.388Z,84.31
2022-12-15T12:55:17.319Z,83.06
2022-12-15T13:01:14.368Z,83.62
2022-12-15T13:06:36.087Z,83.70
2022-12-15T13:12:14.849Z,84.33
2022-12-15T13:17:48.843Z,83.85
2022-12-15T13:23:19.622Z,83.51
2022-12-15T13:28:45.615Z,84.42
2022-12-15T13:34:22.901Z,84.26
2022-12-15T13:39:54.835Z,84.70
2022-12-15T13:45:30.865Z,84.26
2022-12-15T13:50:55.337Z,84.68
2022-12-15T13:56:52.389Z,83.79
2022-12-15T14:02:32.506Z,84.85
2022-12-15T14:07:54.924Z,83.99
2022-12-15T14:13:43.279Z,83.99
2022-12-15T14:19:16.971Z,83.89
2022-12-15T14:24:44.297Z,84.21
2022-12-15T14:30:30.819Z,83.76
2022-12-15T14:35:55.994Z,84.20
2022-12-15T14:41:28.774Z,84.65
2022-12-15T14:46:50.600Z,85.27
2022-12-15T14:52:31.121Z,85.54
2022-12-15T14:57:53.448Z,84.07
2022-12-15T15:03:18.180Z,84.35
2022-12-15T15:08:50.718Z,84.92
2022-12-15T15:14:16.967Z,85.54
2022-12-15T15:19:46.113Z,85.55
2022-12-15T15:25:54.336Z,85.89
2022-12-15T15:31:41.270Z,85.54
2022-12-15T15:37:05.848Z,85.80
2022-12-15T15:42:32.447Z,87.09
2022-12-15T15:47:56.255Z,86.23
2022-12-15T15:53:21.030Z,86.16
2022-12-15T15:58:43.789Z,85.96
2022-12-15T16:04:06.743Z,85.26
2022-12-15T16:09:28.521Z,85.15
2022-12-15T16:14:50.400Z,86.32
2022-12-15T16:20:14.057Z,86.93
2022-12-15T16:25:50.273Z,86.05
2022-12-15T16:31:24.620Z,85.16
2022-12-15T16:36:46.758Z,85.09
2022-12-15T16:42:11.717Z,84.59
2022-12-15T16:47:33.544Z,85.21
2022-12-15T16:52:55.849Z,84.98
2022-12-15T16:58:17.699Z,85.21
2022-12-15T17:03:39.466Z,85.21
2022-12-15T17:09:01.665Z,84.68
2022-12-15T17:14:23.411Z,84.69
2022-12-15T17:20:05.006Z,84.71
2022-12-15T17:26:18.194Z,84.75
2022-12-15T17:31:21.196Z,85.04
2022-12-15T17:36:42.985Z,84.84
2022-12-15T17:42:19.561Z,84.58
2022-12-15T17:47:41.350Z,85.28
2022-12-15T17:53:07.661Z,83.71
2022-12-15T17:58:29.419Z,84.94
2022-12-15T18:03:51.315Z,84.59
2022-12-15T18:09:16.380Z,84.58
2022-12-15T18:14:38.134Z,85.41
2022-12-15T18:19:59.969Z,84.44
2022-12-15T18:25:28.478Z,84.86
2022-12-15T18:30:52.874Z,83.53
2022-12-15T18:36:16.151Z,83.88
2022-12-15T18:41:37.865Z,83.86
2022-12-15T18:46:59.669Z,82.95
2022-12-15T18:52:23.817Z,82.90
2022-12-15T18:57:45.728Z,84.19
2022-12-15T19:03:08.082Z,83.41
2022-12-15T19:08:35.967Z,82.97
2022-12-15T19:14:02.639Z,83.78
2022-12-15T19:19:43.038Z,83.16
2022-12-15T19:25:06.013Z,83.60
2022-12-15T19:30:30.460Z,83.43
2022-12-15T19:35:54.821Z,84.48
2022-12-15T19:41:18.121Z,83.21
2022-12-15T19:46:42.185Z,82.88
2022-12-15T19:52:04.054Z,83.57
2022-12-15T19:57:25.789Z,83.58
2022-12-15T20:02:52.402Z,83.97
2022-12-15T20:08:19.389Z,82.81
2022-12-15T20:13:41.080Z,82.78
2022-12-15T20:19:03.490Z,80.33
2022-12-15T20:24:30.969Z,81.81
2022-12-15T20:29:52.718Z,80.62
2022-12-15T20:35:17.074Z,80.27
2022-12-15T20:40:38.852Z,80.99
2022-12-15T20:46:05.416Z,80.42
2022-12-15T20:51:30.111Z,81.80
2022-12-15T20:56:51.858Z,81.42
2022-12-15T21:02:24.354Z,80.74
2022-12-15T21:07:47.659Z,78.74
2022-12-15T21:13:15.577Z,78.28
2022-12-15T21:24:25.609Z,79.29
2022-12-15T21:29:52.530Z,79.49
2022-12-15T21:35:16.965Z,80.91
2022-12-15T21:40:38.698Z,79.33
2022-12-15T21:46:02.644Z,78.38
2022-12-15T21:51:25.507Z,79.53
2022-12-15T21:56:48.471Z,77.75
2022-12-15T22:02:40.038Z,77.01
2022-12-15T22:08:13.754Z,78.46
2022-12-15T22:13:35.643Z,79.61
2022-12-15T22:18:58.334Z,78.56
2022-12-15T22:24:20.126Z,79.43
2022-12-15T22:29:41.984Z,80.30
2022-12-15T22:35:13.231Z,82.71
2022-12-15T22:40:35.551Z,81.17
2022-12-15T22:45:57.566Z,83.13
2022-12-15T22:51:19.835Z,85.04
2022-12-15T22:56:41.567Z,85.20
2022-12-15T23:02:04.114Z,85.76
2022-12-15T23:07:26.311Z,85.42
2022-12-15T23:12:48.599Z,85.80
2022-12-15T23:18:10.758Z,86.11
2022-12-15T23:23:32.943Z,85.49
2022-12-15T23:28:55.104Z,85.50
2022-12-15T23:34:17.021Z,84.91
2022-12-15T23:39:38.748Z,85.35
2022-12-15T23:45:00.644Z,87.21
2022-12-15T23:50:22.481Z,87.42
2022-12-15T23:55:44.197Z,86.88
